createdAt,value
2018-05-03T00:01:44.991Z,14.90
2018-05-03T00:04:13.243Z,14.80
2018-05-03T00:06:41.675Z,14.90
2018-05-03T00:09:09.931Z,15.00
2018-05-03T00:11:38.210Z,15.00
2018-05-03T00:14:06.490Z,15.10
2018-05-03T00:16:35.513Z,15.10
2018-05-03T00:19:03.790Z,15.00
2018-05-03T00:21:32.045Z,14.90
2018-05-03T00:24:01.075Z,14.70
2018-05-03T00:26:29.378Z,14.70
2018-05-03T00:28:57.614Z,14.80
2018-05-03T00:31:25.867Z,14.80
2018-05-03T00:33:54.917Z,14.70
2018-05-03T00:36:23.181Z,14.70
2018-05-03T00:38:51.423Z,14.80
2018-05-03T00:41:19.685Z,14.60
2018-05-03T00:43:48.714Z,14.80
2018-05-03T00:46:16.962Z,14.80
2018-05-03T00:48:45.980Z,14.90
2018-05-03T00:51:14.238Z,14.90
2018-05-03T00:53:43.262Z,14.90
2018-05-03T00:56:11.636Z,14.90
2018-05-03T00:58:39.893Z,14.80
2018-05-03T01:01:08.182Z,14.80
2018-05-03T01:03:36.450Z,14.90
2018-05-03T01:06:04.717Z,14.90
2018-05-03T01:08:33.736Z,14.90
2018-05-03T01:11:02.030Z,14.90
2018-05-03T01:13:30.307Z,14.90
2018-05-03T01:15:58.875Z,14.90
2018-05-03T01:18:27.123Z,14.60
2018-05-03T01:20:55.374Z,14.60
2018-05-03T01:23:23.638Z,14.70
2018-05-03T01:25:51.922Z,14.80
2018-05-03T01:28:20.154Z,14.80
2018-05-03T01:30:48.417Z,14.70
2018-05-03T01:33:16.683Z,14.60
2018-05-03T01:35:56.898Z,14.60
2018-05-03T01:38:25.152Z,14.60
2018-05-03T01:40:53.424Z,14.40
2018-05-03T01:43:21.747Z,14.50
2018-05-03T01:45:50.502Z,14.60
2018-05-03T01:48:18.778Z,14.70
2018-05-03T01:50:47.062Z,14.70
2018-05-03T01:53:15.322Z,14.60
2018-05-03T01:55:43.578Z,14.60
2018-05-03T01:58:11.829Z,14.50
2018-05-03T02:00:40.103Z,14.60
2018-05-03T02:03:08.367Z,14.60
2018-05-03T02:05:37.399Z,14.60
2018-05-03T02:08:05.638Z,14.60
2018-05-03T02:10:34.699Z,14.50
2018-05-03T02:13:02.925Z,14.50
2018-05-03T02:15:32.070Z,14.50
2018-05-03T02:18:00.389Z,14.50
2018-05-03T02:20:29.409Z,14.40
2018-05-03T02:22:57.658Z,14.40
2018-05-03T02:25:26.689Z,14.50
2018-05-03T02:27:54.975Z,14.50
2018-05-03T02:30:23.214Z,14.50
2018-05-03T02:32:51.504Z,14.50
2018-05-03T02:35:19.767Z,14.40
2018-05-03T02:37:48.154Z,14.40
2018-05-03T02:40:16.425Z,14.40
2018-05-03T02:42:44.706Z,14.40
2018-05-03T02:45:12.994Z,14.30
2018-05-03T02:47:41.242Z,14.30
2018-05-03T02:50:09.511Z,14.30
2018-05-03T02:52:38.568Z,14.30
2018-05-03T02:55:06.847Z,14.30
2018-05-03T02:57:52.635Z,14.30
2018-05-03T03:00:38.355Z,14.30
2018-05-03T03:03:25.066Z,14.40
2018-05-03T03:06:08.687Z,14.40
2018-05-03T03:09:06.435Z,14.40
2018-05-03T03:15:04.406Z,14.30
2018-05-03T03:18:00.407Z,14.30
2018-05-03T03:21:06.704Z,14.30
2018-05-03T03:23:52.520Z,14.30
2018-05-03T03:26:59.840Z,14.30
2018-05-03T03:29:43.708Z,14.30
2018-05-03T03:32:32.688Z,14.30
2018-05-03T03:35:25.576Z,14.30
2018-05-03T03:38:12.026Z,14.40
2018-05-03T03:40:52.160Z,14.40
2018-05-03T03:43:44.926Z,14.40
2018-05-03T03:46:13.196Z,14.40
2018-05-03T03:48:41.457Z,14.40
2018-05-03T03:51:09.718Z,14.40
2018-05-03T03:53:38.744Z,14.40
2018-05-03T03:56:07.002Z,14.40
2018-05-03T03:58:36.014Z,14.40
2018-05-03T04:01:04.288Z,14.40
2018-05-03T04:03:32.530Z,14.40
2018-05-03T04:06:01.547Z,14.40
2018-05-03T04:08:29.821Z,14.40
2018-05-03T04:10:58.098Z,14.40
2018-05-03T04:13:27.130Z,14.40
2018-05-03T04:15:55.389Z,14.40
2018-05-03T04:18:35.654Z,14.40
2018-05-03T04:21:15.863Z,14.50
2018-05-03T04:24:11.379Z,14.40
2018-05-03T04:26:40.401Z,14.40
2018-05-03T04:29:08.681Z,14.30
2018-05-03T04:31:36.937Z,14.30
2018-05-03T04:34:05.950Z,14.20
2018-05-03T04:36:34.222Z,14.20
2018-05-03T04:39:02.451Z,14.30
2018-05-03T04:41:30.701Z,14.40
2018-05-03T04:43:58.978Z,14.40
2018-05-03T04:46:27.240Z,14.40
2018-05-03T04:48:55.501Z,14.40
2018-05-03T04:51:23.760Z,14.40
2018-05-03T04:53:52.939Z,14.40
2018-05-03T04:56:21.982Z,14.50
2018-05-03T04:58:50.589Z,14.50
2018-05-03T05:01:18.859Z,14.60
2018-05-03T05:03:47.116Z,14.70
2018-05-03T05:06:15.385Z,14.60
2018-05-03T05:08:43.665Z,14.70
2018-05-03T05:11:11.925Z,14.80
2018-05-03T05:13:40.199Z,14.80
2018-05-03T05:16:08.487Z,14.70
2018-05-03T05:18:36.735Z,14.90
2018-05-03T05:21:05.769Z,15.00
2018-05-03T05:23:34.020Z,15.00
2018-05-03T05:26:02.309Z,15.00
2018-05-03T05:28:30.558Z,15.10
2018-05-03T05:30:59.586Z,15.20
2018-05-03T05:33:28.053Z,15.20
2018-05-03T05:35:56.305Z,15.20
2018-05-03T05:38:25.350Z,15.20
2018-05-03T05:40:53.629Z,15.20
2018-05-03T05:43:22.168Z,15.10
2018-05-03T05:45:51.241Z,15.20
2018-05-03T05:48:19.474Z,15.20
2018-05-03T05:50:47.771Z,15.20
2018-05-03T05:53:16.080Z,15.20
2018-05-03T05:55:45.101Z,15.10
2018-05-03T05:58:13.378Z,15.10
2018-05-03T06:00:41.630Z,15.20
2018-05-03T06:03:10.705Z,15.20
2018-05-03T06:05:38.959Z,15.20
2018-05-03T06:08:07.372Z,15.10
2018-05-03T06:10:36.559Z,15.00
2018-05-03T06:13:04.815Z,15.00
2018-05-03T06:15:33.070Z,15.00
2018-05-03T06:18:01.345Z,14.90
2018-05-03T06:20:29.713Z,14.90
2018-05-03T06:22:57.992Z,14.90
2018-05-03T06:25:26.258Z,15.00
2018-05-03T06:27:54.738Z,15.00
2018-05-03T06:30:23.913Z,14.90
2018-05-03T06:32:53.007Z,15.00
2018-05-03T06:35:22.054Z,14.90
2018-05-03T06:37:50.287Z,14.90
2018-05-03T06:40:19.318Z,14.90
2018-05-03T06:42:47.570Z,14.90
2018-05-03T06:45:15.851Z,14.90
2018-05-03T06:47:44.114Z,14.90
2018-05-03T06:50:12.373Z,15.00
2018-05-03T06:52:41.385Z,15.20
2018-05-03T06:55:09.650Z,15.20
2018-05-03T06:57:38.662Z,15.10
2018-05-03T07:00:08.151Z,15.10
2018-05-03T07:02:38.386Z,14.90
2018-05-03T07:05:06.689Z,14.90
2018-05-03T07:07:35.544Z,15.00
2018-05-03T07:10:04.578Z,15.00
2018-05-03T07:12:33.357Z,15.00
2018-05-03T07:15:01.607Z,15.00
2018-05-03T07:17:30.806Z,15.10
2018-05-03T07:19:59.073Z,15.20
2018-05-03T07:22:28.145Z,15.20
2018-05-03T07:24:56.415Z,15.20
2018-05-03T07:27:24.702Z,15.20
2018-05-03T07:29:54.648Z,15.40
2018-05-03T07:32:22.944Z,15.40
2018-05-03T07:34:51.272Z,15.50
2018-05-03T07:37:19.625Z,15.60
2018-05-03T07:39:47.853Z,15.50
2018-05-03T07:42:16.118Z,15.50
2018-05-03T07:44:44.395Z,15.50
2018-05-03T07:47:13.407Z,15.60
2018-05-03T07:49:41.682Z,15.60
2018-05-03T07:52:09.925Z,15.50
2018-05-03T07:54:38.976Z,15.50
2018-05-03T07:57:07.232Z,15.50
2018-05-03T07:59:35.502Z,15.60
2018-05-03T08:02:03.828Z,15.60
2018-05-03T08:04:32.813Z,15.60
2018-05-03T08:07:01.053Z,15.60
2018-05-03T08:09:29.324Z,15.70
2018-05-03T08:11:58.356Z,16.00
2018-05-03T08:14:26.625Z,16.00
2018-05-03T08:16:54.858Z,16.00
2018-05-03T08:19:23.135Z,16.00
2018-05-03T08:21:51.376Z,16.10
2018-05-03T08:24:19.656Z,16.20
2018-05-03T08:26:47.919Z,16.20
2018-05-03T08:29:16.178Z,16.30
2018-05-03T08:31:44.526Z,16.30
2018-05-03T08:34:12.788Z,16.30
2018-05-03T08:36:41.824Z,16.20
2018-05-03T08:39:10.088Z,16.20
2018-05-03T08:41:38.332Z,16.20
2018-05-03T08:44:07.376Z,16.00
2018-05-03T08:46:35.623Z,16.00
2018-05-03T08:49:03.934Z,16.00
2018-05-03T08:51:32.217Z,16.00
2018-05-03T08:54:00.454Z,16.10
2018-05-03T08:56:28.706Z,16.20
2018-05-03T08:58:57.739Z,16.30
2018-05-03T09:01:26.061Z,16.30
2018-05-03T09:03:54.547Z,16.30
2018-05-03T09:06:22.794Z,16.20
2018-05-03T09:08:51.039Z,16.20
2018-05-03T09:11:19.309Z,16.20
2018-05-03T09:13:47.545Z,16.20
2018-05-03T09:16:16.583Z,16.60
2018-05-03T09:18:44.851Z,16.60
2018-05-03T09:21:13.415Z,16.70
2018-05-03T09:23:41.663Z,16.70
2018-05-03T09:26:09.963Z,16.70
2018-05-03T09:28:38.203Z,16.80
2018-05-03T09:31:06.509Z,17.00
2018-05-03T09:33:35.549Z,16.90
2018-05-03T09:36:03.856Z,16.90
2018-05-03T09:38:32.144Z,17.10
2018-05-03T09:41:00.381Z,17.00
2018-05-03T09:43:28.654Z,17.00
2018-05-03T09:45:56.941Z,17.10
2018-05-03T09:48:25.226Z,16.90
2018-05-03T09:50:53.484Z,16.90
2018-05-03T09:53:21.777Z,16.80
2018-05-03T09:55:50.032Z,16.70
2018-05-03T09:58:18.297Z,16.80
2018-05-03T10:00:46.557Z,16.80
2018-05-03T10:03:14.823Z,16.90
2018-05-03T10:05:43.854Z,16.90
2018-05-03T10:08:12.103Z,16.80
2018-05-03T10:10:41.140Z,16.90
2018-05-03T10:13:09.436Z,16.90
2018-05-03T10:15:37.666Z,17.00
2018-05-03T10:18:05.930Z,16.90
2018-05-03T10:20:34.188Z,16.90
2018-05-03T10:23:02.539Z,17.00
2018-05-03T10:25:30.811Z,17.00
2018-05-03T10:27:59.075Z,17.00
2018-05-03T10:30:27.314Z,16.90
2018-05-03T10:32:55.598Z,16.90
2018-05-03T10:35:23.871Z,16.80
2018-05-03T10:37:52.922Z,16.80
2018-05-03T10:40:21.160Z,16.80
2018-05-03T10:42:49.426Z,16.70
2018-05-03T10:45:17.700Z,16.60
2018-05-03T10:47:45.973Z,16.50
2018-05-03T10:50:14.250Z,16.70
2018-05-03T10:52:42.506Z,16.90
2018-05-03T10:55:11.547Z,16.90
2018-05-03T10:57:39.811Z,16.90
2018-05-03T11:00:08.451Z,16.90
2018-05-03T11:02:37.538Z,17.00
2018-05-03T11:05:06.571Z,17.20
2018-05-03T11:07:34.823Z,17.20
2018-05-03T11:10:03.855Z,17.10
2018-05-03T11:12:32.128Z,17.10
2018-05-03T11:15:00.374Z,17.20
2018-05-03T11:17:29.403Z,17.10
2018-05-03T11:19:57.672Z,17.10
2018-05-03T11:22:25.961Z,17.20
2018-05-03T11:24:54.224Z,17.20
2018-05-03T11:27:22.482Z,17.10
2018-05-03T11:29:50.763Z,17.10
2018-05-03T11:32:19.016Z,17.10
2018-05-03T11:34:48.056Z,17.20
2018-05-03T11:37:16.319Z,17.20
2018-05-03T11:39:44.586Z,17.40
2018-05-03T11:42:12.836Z,17.40
2018-05-03T11:44:41.898Z,17.60
2018-05-03T11:47:10.205Z,17.60
2018-05-03T11:49:39.261Z,17.60
2018-05-03T11:52:07.505Z,17.60
2018-05-03T11:54:35.758Z,17.70
2018-05-03T11:57:04.793Z,18.00
2018-05-03T11:59:33.042Z,18.00
2018-05-03T12:02:01.343Z,18.10
2018-05-03T12:04:29.589Z,18.00
2018-05-03T12:06:58.641Z,18.10
2018-05-03T12:09:26.874Z,18.10
2018-05-03T12:11:55.149Z,18.20
2018-05-03T12:14:23.398Z,18.30
2018-05-03T12:16:51.666Z,18.30
2018-05-03T12:19:19.917Z,18.20
2018-05-03T12:21:48.188Z,18.10
2018-05-03T12:24:16.441Z,18.00
2018-05-03T12:26:44.688Z,18.00
2018-05-03T12:29:12.946Z,17.80
2018-05-03T12:31:41.243Z,17.70
2018-05-03T12:34:09.537Z,17.60
2018-05-03T12:36:37.788Z,17.70
2018-05-03T12:39:06.825Z,17.90
2018-05-03T12:41:35.062Z,17.90
2018-05-03T12:44:03.325Z,18.00
2018-05-03T12:46:31.598Z,18.20
2018-05-03T12:49:00.654Z,18.20
2018-05-03T12:51:28.893Z,18.20
2018-05-03T12:53:57.174Z,18.30
2018-05-03T12:56:25.423Z,18.40
2018-05-03T12:58:53.685Z,18.40
2018-05-03T13:01:21.948Z,18.50
2018-05-03T13:03:50.204Z,18.60
2018-05-03T13:06:18.475Z,18.80
2018-05-03T13:08:46.715Z,19.00
2018-05-03T13:11:15.774Z,19.10
2018-05-03T13:13:44.051Z,19.10
2018-05-03T13:16:12.329Z,19.00
2018-05-03T13:18:40.578Z,18.80
2018-05-03T13:21:08.860Z,18.90
2018-05-03T13:23:37.109Z,19.00
2018-05-03T13:26:06.407Z,19.00
2018-05-03T13:28:34.678Z,19.00
2018-05-03T13:31:03.038Z,18.90
2018-05-03T13:33:32.064Z,18.80
2018-05-03T13:36:00.323Z,18.80
2018-05-03T13:38:28.578Z,18.80
2018-05-03T13:40:57.590Z,18.70
2018-05-03T13:43:25.846Z,18.70
2018-05-03T13:45:54.865Z,18.80
2018-05-03T13:48:23.127Z,18.80
2018-05-03T13:50:51.387Z,18.90
2018-05-03T13:53:20.492Z,18.80
2018-05-03T13:55:48.676Z,18.70
2018-05-03T13:58:16.944Z,18.60
2018-05-03T14:00:46.043Z,18.70
2018-05-03T14:03:14.226Z,18.70
2018-05-03T14:05:42.517Z,18.80
2018-05-03T14:08:10.759Z,18.80
2018-05-03T14:10:39.782Z,19.00
2018-05-03T14:13:08.142Z,19.00
2018-05-03T14:15:36.430Z,19.10
2018-05-03T14:18:04.730Z,19.30
2018-05-03T14:20:33.020Z,19.40
2018-05-03T14:23:01.285Z,19.40
2018-05-03T14:25:29.988Z,19.40
2018-05-03T14:27:58.254Z,19.30
2018-05-03T14:30:26.491Z,19.10
2018-05-03T14:32:54.760Z,19.10
2018-05-03T14:35:23.798Z,19.10
2018-05-03T14:37:52.061Z,19.10
2018-05-03T14:40:20.317Z,19.10
2018-05-03T14:42:48.608Z,19.10
2018-05-03T14:45:16.858Z,19.10
2018-05-03T14:47:45.120Z,19.30
2018-05-03T14:50:14.229Z,19.30
2018-05-03T14:52:43.267Z,19.40
2018-05-03T14:55:11.560Z,19.40
2018-05-03T14:57:39.858Z,19.40
2018-05-03T15:00:08.098Z,19.10
2018-05-03T15:02:36.370Z,19.10
2018-05-03T15:05:04.655Z,19.10
2018-05-03T15:07:32.949Z,19.00
2018-05-03T15:10:01.179Z,18.90
2018-05-03T15:12:29.435Z,18.90
2018-05-03T15:14:57.714Z,19.00
2018-05-03T15:17:25.998Z,19.00
2018-05-03T15:19:54.266Z,19.00
2018-05-03T15:22:22.540Z,19.00
2018-05-03T15:24:50.786Z,19.00
2018-05-03T15:27:19.072Z,19.00
2018-05-03T15:29:47.333Z,19.00
2018-05-03T15:32:15.666Z,19.00
2018-05-03T15:34:43.926Z,19.10
2018-05-03T15:37:12.195Z,19.10
2018-05-03T15:39:41.202Z,18.90
2018-05-03T15:42:09.483Z,18.90
2018-05-03T15:44:37.795Z,19.00
2018-05-03T15:47:06.037Z,18.90
2018-05-03T15:49:34.356Z,18.90
2018-05-03T15:52:02.583Z,19.00
2018-05-03T15:54:30.855Z,19.00
2018-05-03T15:56:59.111Z,19.00
2018-05-03T15:59:27.439Z,18.90
2018-05-03T16:01:55.673Z,18.80
2018-05-03T16:04:24.719Z,18.80
2018-05-03T16:06:52.974Z,18.80
2018-05-03T16:09:21.229Z,18.80
2018-05-03T16:11:49.491Z,18.70
2018-05-03T16:14:18.612Z,18.70
2018-05-03T16:16:46.771Z,18.70
2018-05-03T16:19:15.054Z,18.70
2018-05-03T16:21:43.310Z,18.70
2018-05-03T16:24:11.591Z,18.70
2018-05-03T16:26:39.912Z,18.60
2018-05-03T16:29:08.163Z,18.70
2018-05-03T16:31:36.481Z,18.70
2018-05-03T16:34:04.714Z,18.70
2018-05-03T16:36:32.981Z,18.70
2018-05-03T16:39:01.257Z,18.70
2018-05-03T16:41:29.569Z,18.70
2018-05-03T16:43:57.847Z,18.60
2018-05-03T16:46:26.112Z,18.60
2018-05-03T16:48:54.419Z,18.50
2018-05-03T16:51:22.684Z,18.50
2018-05-03T16:53:51.875Z,18.50
2018-05-03T16:56:20.137Z,18.50
2018-05-03T16:58:48.395Z,18.50
2018-05-03T17:01:16.641Z,18.50
2018-05-03T17:03:46.001Z,18.50
2018-05-03T17:06:14.266Z,18.40
2018-05-03T17:08:42.539Z,18.40
2018-05-03T17:11:10.799Z,18.40
2018-05-03T17:13:39.061Z,18.30
2018-05-03T17:16:08.095Z,18.40
2018-05-03T17:18:36.357Z,18.40
2018-05-03T17:21:04.631Z,18.40
2018-05-03T17:23:32.904Z,18.40
2018-05-03T17:26:01.174Z,18.40
2018-05-03T17:28:29.431Z,18.40
2018-05-03T17:30:58.491Z,18.40
2018-05-03T17:33:26.754Z,18.40
2018-05-03T17:35:54.993Z,18.40
2018-05-03T17:38:23.261Z,18.40
2018-05-03T17:40:52.286Z,18.40
2018-05-03T17:43:20.547Z,18.40
2018-05-03T17:45:48.805Z,18.30
2018-05-03T17:48:17.092Z,18.30
2018-05-03T17:50:46.140Z,18.30
2018-05-03T17:53:14.418Z,18.30
2018-05-03T17:55:42.700Z,18.30
2018-05-03T17:58:10.956Z,18.30
2018-05-03T18:00:39.231Z,18.20
2018-05-03T18:03:07.553Z,18.20
2018-05-03T18:05:35.825Z,18.30
2018-05-03T18:08:04.834Z,18.20
2018-05-03T18:10:33.156Z,18.20
2018-05-03T18:13:01.416Z,18.20
2018-05-03T18:15:29.679Z,18.20
2018-05-03T18:17:58.538Z,18.20
2018-05-03T18:20:26.833Z,18.20
2018-05-03T18:22:55.147Z,18.10
2018-05-03T18:25:23.391Z,18.10
2018-05-03T18:27:51.667Z,18.10
2018-05-03T18:30:20.708Z,18.00
2018-05-03T18:32:48.986Z,18.00
2018-05-03T18:35:17.234Z,18.00
2018-05-03T18:37:45.493Z,18.00
2018-05-03T18:40:13.746Z,17.90
2018-05-03T18:42:42.778Z,17.80
2018-05-03T18:45:11.059Z,17.80
2018-05-03T18:47:39.341Z,17.80
2018-05-03T18:50:07.607Z,17.70
2018-05-03T18:52:35.857Z,17.70
2018-05-03T18:55:04.139Z,17.70
2018-05-03T18:57:32.381Z,17.70
2018-05-03T19:00:00.977Z,17.70
2018-05-03T19:02:29.993Z,17.60
2018-05-03T19:04:58.252Z,17.60
2018-05-03T19:07:27.275Z,17.60
2018-05-03T19:09:55.548Z,17.60
2018-05-03T19:12:23.819Z,17.60
2018-05-03T19:14:52.158Z,17.60
2018-05-03T19:17:20.513Z,17.60
2018-05-03T19:19:48.766Z,17.60
2018-05-03T19:22:17.034Z,17.60
2018-05-03T19:24:45.286Z,17.60
2018-05-03T19:27:13.582Z,17.60
2018-05-03T19:29:41.842Z,17.60
2018-05-03T19:32:10.195Z,17.60
2018-05-03T19:34:38.492Z,17.60
2018-05-03T19:37:07.508Z,17.50
2018-05-03T19:39:35.816Z,17.50
2018-05-03T19:42:04.123Z,17.50
2018-05-03T19:44:32.846Z,17.50
2018-05-03T19:47:01.119Z,17.50
2018-05-03T19:49:29.372Z,17.50
2018-05-03T19:51:58.432Z,17.50
2018-05-03T19:54:26.683Z,17.40
2018-05-03T19:56:54.988Z,17.50
2018-05-03T19:59:23.277Z,17.50
2018-05-03T20:01:51.550Z,17.50
2018-05-03T20:04:19.809Z,17.40
2018-05-03T20:06:48.089Z,17.40
2018-05-03T20:09:16.342Z,17.50
2018-05-03T20:11:44.592Z,17.40
2018-05-03T20:14:12.877Z,17.40
2018-05-03T20:16:41.133Z,17.40
2018-05-03T20:19:10.160Z,17.40
2018-05-03T20:21:38.418Z,17.30
2018-05-03T20:24:06.766Z,17.30
2018-05-03T20:26:35.807Z,17.30
2018-05-03T20:29:04.088Z,17.30
2018-05-03T20:31:32.383Z,17.30
2018-05-03T20:34:00.614Z,17.20
2018-05-03T20:36:28.890Z,17.20
2018-05-03T20:38:57.194Z,17.20
2018-05-03T20:41:26.199Z,17.10
2018-05-03T20:43:54.455Z,17.10
2018-05-03T20:46:22.706Z,17.10
2018-05-03T20:48:51.731Z,17.10
2018-05-03T20:51:20.001Z,17.10
2018-05-03T20:53:48.329Z,17.10
2018-05-03T20:56:16.600Z,17.10
2018-05-03T20:58:44.866Z,17.00
2018-05-03T21:01:13.132Z,17.00
2018-05-03T21:03:41.375Z,17.00
2018-05-03T21:06:09.625Z,17.10
2018-05-03T21:08:37.880Z,17.30
2018-05-03T21:11:06.146Z,17.40
2018-05-03T21:13:34.413Z,17.50
2018-05-03T21:16:02.697Z,17.50
2018-05-03T21:18:30.995Z,17.60
2018-05-03T21:20:59.282Z,17.60
2018-05-03T21:23:27.558Z,17.70
2018-05-03T21:25:55.921Z,17.60
2018-05-03T21:28:24.173Z,17.60
2018-05-03T21:30:52.469Z,17.60
2018-05-03T21:33:20.740Z,17.60
2018-05-03T21:35:49.001Z,17.60
2018-05-03T21:38:17.238Z,17.40
2018-05-03T21:40:45.778Z,17.40
2018-05-03T21:43:14.010Z,17.40
2018-05-03T21:45:42.282Z,17.30
2018-05-03T21:48:10.526Z,17.30
2018-05-03T21:50:39.633Z,17.40
2018-05-03T21:53:07.880Z,17.30
2018-05-03T21:55:37.051Z,17.40
2018-05-03T21:58:05.295Z,17.30
2018-05-03T22:00:33.578Z,17.30
2018-05-03T22:03:01.849Z,17.30
2018-05-03T22:05:30.111Z,17.30
2018-05-03T22:07:59.280Z,17.30
2018-05-03T22:10:27.544Z,17.30
2018-05-03T22:12:55.824Z,17.30
2018-05-03T22:15:24.088Z,17.30
2018-05-03T22:17:52.325Z,17.40
2018-05-03T22:20:20.605Z,17.40
2018-05-03T22:22:48.857Z,17.30
2018-05-03T22:25:17.143Z,17.30
2018-05-03T22:27:45.396Z,17.30
2018-05-03T22:30:14.420Z,17.30
2018-05-03T22:32:42.688Z,17.20
2018-05-03T22:35:10.938Z,17.20
2018-05-03T22:37:39.956Z,17.20
2018-05-03T22:40:08.208Z,17.20
2018-05-03T22:42:36.483Z,17.10
2018-05-03T22:45:04.754Z,17.00
2018-05-03T22:47:33.781Z,17.00
2018-05-03T22:50:02.059Z,17.00
2018-05-03T22:52:30.318Z,17.10
2018-05-03T22:54:59.440Z,17.00
2018-05-03T22:57:27.641Z,17.00
2018-05-03T22:59:55.959Z,17.00
2018-05-03T23:02:25.121Z,17.00
2018-05-03T23:04:53.366Z,17.00
2018-05-03T23:07:21.646Z,17.00
2018-05-03T23:09:49.910Z,17.00
2018-05-03T23:12:18.151Z,16.90
2018-05-03T23:14:47.179Z,16.80
2018-05-03T23:17:15.465Z,16.80
2018-05-03T23:19:43.715Z,16.80
2018-05-03T23:22:11.986Z,16.80
2018-05-03T23:24:41.007Z,16.90
2018-05-03T23:27:09.260Z,16.80
2018-05-03T23:29:37.555Z,16.90
2018-05-03T23:32:05.818Z,16.80
2018-05-03T23:34:34.077Z,16.80
2018-05-03T23:37:03.087Z,16.70
2018-05-03T23:39:31.365Z,16.70
2018-05-03T23:42:00.210Z,16.70
2018-05-03T23:44:28.478Z,16.70
2018-05-03T23:46:56.759Z,16.70
2018-05-03T23:49:25.026Z,16.70
2018-05-03T23:51:53.308Z,16.70
2018-05-03T23:54:21.546Z,16.70
2018-05-03T23:56:49.989Z,16.70
2018-05-03T23:59:18.236Z,16.70
